Aerial Acres, California
Current Conditions -  °F | °C
As of 10:58 PM on Friday 28 Nov 2014 (Local Time) from KEDW Reporting Station
Clear Clear  
Wind Chill: 46°   Ceiling: Unl
Heat Index: 49°   Visibility: 10mi
Dew Point: 19°   Wind: 8mph
Humidity: 30%   Direction: 190°S
Pressure: 29.92"   Gusts: NA
Location:  34.931°N, 117.867°W
Report Text: KEDW 290658Z AUTO 19007KT 10SM CLR 10/M07 A2992 RMK AO2 SLP128 T00961071
Loading
Personal Weather Stations






























Interactive Weather Map New forecast layout! Learn more

10-Day Weather Forecast

Advertisements
Track Severe Weather on mobile